Terminal Aerodrome Forecast
Issued by NWS Cleveland, OH

Home | Current Version | Previous Version | Text Only | Print | Product List | Glossary On
Versions: 1 2 3 4 5 6 7 8 9 10 11 12 13 14 15 16 17 18 19
879
FTUS41 KCLE 252342
TAFYNG
TAF
KYNG 252342Z 2600/2624 26010G20KT P6SM BKN035 BKN080
      TEMPO 2600/2601 3SM TSRA BR OVC025CB
     FM260200 24007KT P6SM SCT040
     FM260700 26005KT 4SM BR SCT015
     FM261000 30003KT 2SM BR SCT010
     FM261400 30007KT P6SM SCT040=

USA.gov is the U.S. government's official web portal to all federal, state and local government web resources and services.